Time;durP1;ratioP1;P1;durP2;ratioP2;P2;SDS_P1;SDS_P2;PMS_P1;PMS_P2;Temp;Humidity;BMP_temperature;BMP_pressure;BME280_temperature;BME280_humidity;BME280_pressure;Samples;Min_cycle;Max_cycle;Signal;HPM_P1;HPM_P2
2021/08/13 00:01:44;;;;;;;8.13;6.60;;;18.40;81.20;;;;;;4959412;28;20042;-79
2021/08/13 00:04:11;;;;;;;8.60;6.32;;;18.40;80.90;;;;;;4993079;28;20041;-79
2021/08/13 00:06:40;;;;;;;9.70;6.57;;;18.40;79.10;;;;;;4982739;28;20062;-79
2021/08/13 00:09:09;;;;;;;16.00;9.80;;;18.40;78.80;;;;;;4980168;28;20042;-78
2021/08/13 00:11:38;;;;;;;12.10;9.75;;;18.30;79.20;;;;;;4978584;28;20679;-79
2021/08/13 00:14:04;;;;;;;18.83;10.48;;;18.20;80.30;;;;;;4977673;28;20038;-78
2021/08/13 00:16:30;;;;;;;13.30;9.95;;;18.10;81.30;;;;;;4977708;28;20034;-79
2021/08/13 00:18:55;;;;;;;11.90;9.07;;;18.00;81.10;;;;;;4991579;28;20461;-79
2021/08/13 00:21:21;;;;;;;11.40;9.77;;;18.00;81.30;;;;;;4978390;28;20089;-79
2021/08/13 00:23:46;;;;;;;9.98;6.82;;;18.00;80.50;;;;;;4964300;28;20101;-78
2021/08/13 00:26:12;;;;;;;13.98;9.63;;;18.10;80.20;;;;;;4980216;28;20037;-78
2021/08/13 00:28:37;;;;;;;12.00;9.15;;;18.00;80.50;;;;;;4962483;28;20077;-78
2021/08/13 00:31:03;;;;;;;10.48;7.55;;;17.90;80.60;;;;;;4984338;28;20041;-78
2021/08/13 00:33:28;;;;;;;14.90;8.70;;;17.90;81.00;;;;;;4979025;28;20038;-78
2021/08/13 00:35:54;;;;;;;14.90;10.07;;;17.90;80.60;;;;;;4974679;28;20030;-78
2021/08/13 00:38:19;;;;;;;17.55;11.35;;;17.80;81.40;;;;;;4979073;28;20034;-79
2021/08/13 00:40:45;;;;;;;14.60;9.93;;;17.70;82.60;;;;;;4994018;28;20088;-77
2021/08/13 00:43:10;;;;;;;12.27;9.63;;;17.70;81.80;;;;;;4994317;28;20040;-78
2021/08/13 00:45:36;;;;;;;8.95;7.20;;;17.70;81.70;;;;;;4968392;28;20034;-78
2021/08/13 00:48:02;;;;;;;9.60;7.50;;;17.70;81.80;;;;;;4979026;28;20022;-79
2021/08/13 00:50:27;;;;;;;10.85;9.00;;;17.70;81.00;;;;;;4989548;28;20053;-78
2021/08/13 00:52:53;;;;;;;14.13;9.30;;;17.70;81.20;;;;;;4976361;28;20533;-78
2021/08/13 00:55:19;;;;;;;10.68;8.27;;;17.60;81.20;;;;;;4980629;28;20482;-77
2021/08/13 00:57:45;;;;;;;13.93;7.63;;;17.70;81.00;;;;;;4966384;28;20041;-79
2021/08/13 01:00:11;;;;;;;9.45;7.40;;;17.70;80.80;;;;;;4970818;28;20069;-78
2021/08/13 01:02:36;;;;;;;8.75;7.22;;;17.80;80.30;;;;;;4978405;28;20061;-78
2021/08/13 01:05:02;;;;;;;9.45;7.03;;;17.80;79.80;;;;;;4989312;28;20037;-79
2021/08/13 01:07:28;;;;;;;9.30;7.75;;;18.00;80.40;;;;;;4967431;28;20493;-78
2021/08/13 01:09:53;;;;;;;10.02;7.60;;;18.00;81.10;;;;;;4976690;28;20045;-77
2021/08/13 01:12:35;;;;;;;11.23;7.97;;;18.00;80.80;;;;;;4979007;28;20030;-77
2021/08/13 01:15:10;;;;;;;10.30;7.32;;;17.90;80.80;;;;;;4997486;28;20053;-77
2021/08/13 01:17:46;;;;;;;10.20;7.97;;;17.80;80.90;;;;;;4982015;28;20357;-77
2021/08/13 01:20:36;;;;;;;12.13;9.18;;;17.80;80.70;;;;;;4980819;28;20030;-77
2021/08/13 01:23:06;;;;;;;13.05;10.05;;;17.70;80.40;;;;;;4979664;28;20052;-77
2021/08/13 01:25:33;;;;;;;18.15;10.63;;;17.50;80.90;;;;;;4991157;28;20041;-78
2021/08/13 01:28:04;;;;;;;14.77;9.88;;;17.50;81.10;;;;;;4982314;28;20061;-77
2021/08/13 01:30:29;;;;;;;9.32;7.10;;;17.40;81.20;;;;;;4983000;28;20026;-78
2021/08/13 01:32:56;;;;;;;9.52;7.18;;;17.40;81.50;;;;;;4979541;28;20073;-77
2021/08/13 01:35:23;;;;;;;8.02;6.95;;;17.40;81.50;;;;;;4984830;28;20042;-78
2021/08/13 01:37:51;;;;;;;8.95;7.00;;;17.40;81.30;;;;;;4992193;28;20025;-77
2021/08/13 01:40:17;;;;;;;10.65;8.55;;;17.30;81.40;;;;;;4963982;28;20030;-77
2021/08/13 01:42:43;;;;;;;10.20;7.97;;;17.50;82.40;;;;;;4980642;28;21210;-77
2021/08/13 01:45:09;;;;;;;11.07;7.75;;;17.60;82.60;;;;;;4984109;28;20923;-77
2021/08/13 01:47:35;;;;;;;17.17;10.68;;;17.50;81.60;;;;;;4966242;28;20023;-78
2021/08/13 01:50:01;;;;;;;15.18;10.27;;;17.30;81.90;;;;;;4982244;28;20386;-77
2021/08/13 01:52:26;;;;;;;23.23;9.40;;;17.10;82.60;;;;;;4981167;28;20092;-77
2021/08/13 01:54:52;;;;;;;15.57;10.02;;;17.10;82.50;;;;;;4981567;28;20034;-79
2021/08/13 01:57:18;;;;;;;16.52;11.13;;;17.00;82.60;;;;;;4968940;28;20026;-77
2021/08/13 01:59:43;;;;;;;15.68;10.73;;;17.00;82.50;;;;;;4985108;28;20053;-78
2021/08/13 02:02:09;;;;;;;13.07;9.77;;;17.00;82.30;;;;;;4983411;28;20113;-77
2021/08/13 02:04:34;;;;;;;15.57;10.48;;;17.00;82.30;;;;;;4967773;28;20072;-77
2021/08/13 02:07:00;;;;;;;14.98;10.63;;;16.90;83.70;;;;;;4984475;28;20101;-78
2021/08/13 02:09:25;;;;;;;10.85;8.38;;;16.90;82.30;;;;;;4993610;28;20045;-78
2021/08/13 02:11:51;;;;;;;14.07;9.90;;;17.00;82.30;;;;;;4996618;28;20050;-77
2021/08/13 02:14:17;;;;;;;10.43;7.50;;;17.00;82.00;;;;;;4983039;28;20034;-77
2021/08/13 02:16:44;;;;;;;12.52;7.47;;;17.10;82.90;;;;;;4983450;28;20033;-77
2021/08/13 02:19:13;;;;;;;8.93;6.82;;;17.10;82.60;;;;;;4982989;28;20037;-78
2021/08/13 02:21:40;;;;;;;9.93;7.38;;;17.00;82.70;;;;;;4993869;28;20030;-77
2021/08/13 02:24:05;;;;;;;8.27;7.13;;;17.00;82.40;;;;;;4981688;28;20505;-76
2021/08/13 02:26:31;;;;;;;8.90;7.28;;;17.00;82.60;;;;;;4981646;28;20042;-78
2021/08/13 02:28:56;;;;;;;10.35;7.75;;;17.00;83.50;;;;;;4984197;28;20036;-77
2021/08/13 02:31:22;;;;;;;9.52;7.40;;;17.10;84.80;;;;;;4993072;28;20035;-76
2021/08/13 02:33:47;;;;;;;12.32;8.50;;;17.00;83.00;;;;;;4967317;28;20348;-79
2021/08/13 02:36:15;;;;;;;12.18;9.57;;;17.00;85.00;;;;;;4996181;28;20442;-77
2021/08/13 02:38:55;;;;;;;10.45;8.10;;;16.90;84.50;;;;;;4966288;28;20400;-78
2021/08/13 02:41:21;;;;;;;9.52;7.88;;;16.90;84.30;;;;;;4969126;28;20041;-77
2021/08/13 02:43:53;;;;;;;13.13;9.88;;;16.90;84.40;;;;;;4982665;28;20143;-78
2021/08/13 02:46:19;;;;;;;14.80;9.23;;;16.70;83.90;;;;;;4983310;28;20030;-78
2021/08/13 02:48:44;;;;;;;12.15;8.20;;;16.60;84.00;;;;;;4996145;28;20044;-78
2021/08/13 02:51:14;;;;;;;13.18;8.50;;;16.60;84.30;;;;;;4964939;28;20478;-76
2021/08/13 02:53:40;;;;;;;13.32;8.50;;;16.60;84.00;;;;;;4974284;28;20130;-78
2021/08/13 02:56:07;;;;;;;9.23;7.53;;;16.50;85.30;;;;;;5001591;28;20050;-76
2021/08/13 02:58:54;;;;;;;11.70;8.75;;;16.60;85.20;;;;;;4981577;28;20037;-77
2021/08/13 03:01:24;;;;;;;9.00;7.28;;;16.60;85.20;;;;;;4976992;28;20049;-77
2021/08/13 03:03:50;;;;;;;15.07;9.95;;;16.60;85.00;;;;;;4976617;28;20391;-79
2021/08/13 03:06:16;;;;;;;12.73;8.20;;;16.60;88.30;;;;;;4966939;28;20046;-77
2021/08/13 03:08:41;;;;;;;9.32;7.28;;;16.50;85.80;;;;;;4978770;28;20119;-77
2021/08/13 03:11:07;;;;;;;10.23;8.43;;;16.60;86.00;;;;;;4960067;28;20066;-77
2021/08/13 03:13:33;;;;;;;13.10;9.32;;;16.50;86.70;;;;;;4964257;28;20366;-78
2021/08/13 03:15:58;;;;;;;9.75;7.03;;;16.50;85.60;;;;;;4990495;28;20034;-77
2021/08/13 03:18:24;;;;;;;12.60;8.18;;;16.40;86.30;;;;;;4979846;28;20033;-77
2021/08/13 03:20:49;;;;;;;8.57;7.68;;;16.40;88.00;;;;;;4962068;28;20046;-77
2021/08/13 03:23:15;;;;;;;13.95;9.98;;;16.60;86.90;;;;;;4991525;28;20089;-77
2021/08/13 03:25:41;;;;;;;19.02;11.32;;;16.40;86.70;;;;;;4982652;28;20066;-76
2021/08/13 03:28:07;;;;;;;14.25;10.82;;;16.30;88.00;;;;;;4972898;28;20035;-76
2021/08/13 03:30:43;;;;;;;14.52;9.68;;;16.30;86.70;;;;;;4966121;28;20026;-77
2021/08/13 03:33:09;;;;;;;;;;;16.30;86.30;;;;;;4980934;28;20425;-77
2021/08/13 03:35:35;;;;;;;16.42;11.43;;;16.30;87.40;;;;;;4995141;28;20028;-77
2021/08/13 03:38:00;;;;;;;16.25;11.98;;;16.20;87.60;;;;;;4964595;28;20570;-78
2021/08/13 03:40:26;;;;;;;9.68;8.27;;;16.20;87.30;;;;;;4965068;28;20034;-77
2021/08/13 03:42:51;;;;;;;13.93;10.57;;;16.30;88.40;;;;;;4966057;28;20081;-77
2021/08/13 03:45:17;;;;;;;18.50;11.75;;;16.20;88.10;;;;;;4966115;28;20062;-77
2021/08/13 03:47:42;;;;;;;12.55;10.70;;;16.10;88.70;;;;;;4967360;28;20115;-79
2021/08/13 03:50:08;;;;;;;13.73;10.80;;;16.20;88.50;;;;;;4962492;28;20055;-77
2021/08/13 03:52:33;;;;;;;14.90;11.10;;;16.00;89.30;;;;;;4976305;28;20092;-76
2021/08/13 03:54:59;;;;;;;13.98;9.07;;;16.10;88.70;;;;;;4964053;28;20037;-77
2021/08/13 03:57:25;;;;;;;10.40;7.78;;;16.10;87.60;;;;;;4977575;28;20030;-77
2021/08/13 03:59:50;;;;;;;13.05;9.57;;;16.10;87.90;;;;;;4967648;28;20042;-77
2021/08/13 04:02:16;;;;;;;12.98;10.82;;;16.10;88.40;;;;;;4991347;28;20497;-76
2021/08/13 04:04:41;;;;;;;13.23;10.70;;;16.00;88.30;;;;;;4996443;28;20022;-77
2021/08/13 04:07:07;;;;;;;11.85;8.48;;;16.00;89.40;;;;;;4979661;28;20037;-78
2021/08/13 04:09:32;;;;;;;19.30;11.60;;;16.10;88.50;;;;;;4978812;28;20113;-77
2021/08/13 04:11:59;;;;;;;10.05;8.15;;;16.00;89.80;;;;;;4961901;28;20487;-77
2021/08/13 04:14:24;;;;;;;11.23;9.05;;;15.90;89.10;;;;;;4978556;28;20474;-77
2021/08/13 04:16:50;;;;;;;16.65;11.13;;;16.10;89.30;;;;;;4963667;28;20034;-77
2021/08/13 04:19:15;;;;;;;14.63;10.77;;;16.00;92.80;;;;;;4980483;28;20120;-78
2021/08/13 04:21:41;;;;;;;17.13;11.55;;;15.80;91.20;;;;;;4981188;28;20490;-78
2021/08/13 04:24:06;;;;;;;14.93;11.10;;;15.80;90.50;;;;;;4976741;28;20113;-77
2021/08/13 04:26:32;;;;;;;12.48;9.43;;;15.80;90.40;;;;;;4991927;28;20030;-77
2021/08/13 04:28:57;;;;;;;9.77;7.43;;;15.90;92.00;;;;;;4982062;28;20487;-77
2021/08/13 04:31:23;;;;;;;14.50;9.40;;;16.20;91.20;;;;;;4979298;28;20390;-76
2021/08/13 04:33:49;;;;;;;13.43;8.27;;;16.10;90.50;;;;;;4963258;28;20038;-77
2021/08/13 04:36:14;;;;;;;9.27;7.28;;;16.00;90.80;;;;;;4990474;28;20044;-77
2021/08/13 04:38:41;;;;;;;12.50;8.60;;;16.00;91.00;;;;;;4967165;28;20030;-77
2021/08/13 04:41:07;;;;;;;11.07;7.03;;;16.10;91.50;;;;;;4966310;28;20030;-78
2021/08/13 04:43:32;;;;;;;11.23;7.40;;;16.30;91.60;;;;;;4988958;28;20038;-77
2021/08/13 04:45:58;;;;;;;14.10;9.80;;;16.30;91.10;;;;;;4966255;28;20041;-78
2021/08/13 04:48:23;;;;;;;10.80;8.35;;;16.20;91.10;;;;;;4970769;28;20034;-78
2021/08/13 04:50:49;;;;;;;10.35;7.28;;;16.20;91.30;;;;;;4954597;28;20034;-76
2021/08/13 04:53:16;;;;;;;10.20;7.15;;;16.30;91.50;;;;;;4965769;28;20363;-77
2021/08/13 04:55:41;;;;;;;14.25;8.30;;;16.20;91.10;;;;;;4979913;28;20612;-76
2021/08/13 04:58:07;;;;;;;10.57;7.78;;;16.20;91.60;;;;;;4996145;28;20061;-76
2021/08/13 05:00:32;;;;;;;15.55;10.35;;;16.30;91.80;;;;;;4977656;28;20461;-78
2021/08/13 05:02:58;;;;;;;16.90;9.90;;;16.20;91.20;;;;;;4978647;28;20069;-77
2021/08/13 05:05:29;;;;;;;11.50;9.38;;;16.30;91.20;;;;;;4975324;28;20114;-79
2021/08/13 05:07:55;;;;;;;13.98;10.45;;;16.30;90.90;;;;;;4985505;28;20035;-78
2021/08/13 05:10:20;;;;;;;14.32;10.32;;;16.30;91.30;;;;;;4986329;28;20036;-78
2021/08/13 05:12:46;;;;;;;13.65;10.65;;;16.40;91.10;;;;;;4966023;28;20101;-77
2021/08/13 05:15:12;;;;;;;11.75;9.05;;;16.40;91.30;;;;;;4980570;28;20118;-77
2021/08/13 05:17:39;;;;;;;13.80;9.10;;;16.60;91.30;;;;;;4996665;28;20053;-76
2021/08/13 05:20:06;;;;;;;15.32;11.35;;;16.70;91.10;;;;;;4968463;28;20031;-78
2021/08/13 05:22:33;;;;;;;12.40;8.93;;;16.80;91.00;;;;;;4968265;28;20450;-77
2021/08/13 05:25:06;;;;;;;16.20;11.07;;;16.90;91.20;;;;;;4966283;28;20054;-77
2021/08/13 05:27:32;;;;;;;12.05;7.60;;;17.00;91.10;;;;;;4988377;28;20118;-77
2021/08/13 05:29:57;;;;;;;9.40;7.10;;;17.20;90.70;;;;;;4987870;28;20050;-79
2021/08/13 05:32:24;;;;;;;9.13;7.07;;;17.40;90.40;;;;;;4972156;28;20381;-78
2021/08/13 05:34:50;;;;;;;8.48;6.95;;;17.50;90.50;;;;;;4987067;28;20755;-79
2021/08/13 05:37:21;;;;;;;13.13;9.55;;;17.70;90.10;;;;;;4985167;28;20031;-78
2021/08/13 05:39:47;;;;;;;15.32;10.57;;;17.80;90.90;;;;;;4995110;28;20022;-78
2021/08/13 05:42:12;;;;;;;12.20;9.80;;;17.90;91.00;;;;;;4985328;28;20022;-78
2021/08/13 05:44:39;;;;;;;8.10;6.55;;;18.10;91.40;;;;;;4979085;28;20030;-77
2021/08/13 05:47:04;;;;;;;12.90;9.68;;;18.30;90.10;;;;;;4985863;28;20494;-77
2021/08/13 05:49:30;;;;;;;8.57;6.47;;;18.50;89.80;;;;;;4971702;28;20081;-78
2021/08/13 05:51:55;;;;;;;12.80;9.05;;;18.60;88.00;;;;;;4970860;28;20502;-77
2021/08/13 05:54:21;;;;;;;11.07;8.98;;;18.70;90.00;;;;;;4983527;28;20030;-77
2021/08/13 05:56:46;;;;;;;12.20;7.88;;;18.90;90.00;;;;;;4968585;28;20046;-77
2021/08/13 05:59:12;;;;;;;8.75;6.65;;;19.00;87.60;;;;;;4989404;28;20033;-77
2021/08/13 06:01:37;;;;;;;10.85;6.93;;;19.10;87.30;;;;;;4988677;28;20031;-77
2021/08/13 06:04:03;;;;;;;9.55;6.88;;;19.10;87.60;;;;;;4989511;28;20026;-77
2021/08/13 06:06:29;;;;;;;11.95;7.30;;;19.20;86.30;;;;;;4973366;28;20386;-77
2021/08/13 06:08:54;;;;;;;12.07;6.95;;;19.20;87.60;;;;;;4970040;28;20038;-77
2021/08/13 06:11:20;;;;;;;10.10;7.38;;;19.30;86.30;;;;;;4985273;28;20033;-77
2021/08/13 06:13:45;;;;;;;13.90;7.85;;;19.40;86.00;;;;;;4988771;28;20034;-79
2021/08/13 06:16:11;;;;;;;16.02;7.80;;;19.40;87.70;;;;;;4975653;28;20026;-77
2021/08/13 06:18:37;;;;;;;12.18;9.50;;;19.70;87.00;;;;;;5005014;28;20105;-78
2021/08/13 06:21:03;;;;;;;11.88;9.50;;;19.90;89.10;;;;;;4987417;28;20045;-78
2021/08/13 06:23:28;;;;;;;14.73;9.57;;;20.20;87.50;;;;;;4993107;28;20034;-78
2021/08/13 06:25:54;;;;;;;14.02;9.95;;;20.40;88.80;;;;;;4990737;28;20112;-77
2021/08/13 06:28:19;;;;;;;11.95;8.85;;;20.60;90.10;;;;;;4988619;28;20026;-78
2021/08/13 06:30:45;;;;;;;13.90;7.60;;;20.90;87.60;;;;;;4973409;28;20038;-78
2021/08/13 06:33:10;;;;;;;10.00;7.82;;;21.10;88.00;;;;;;4969153;28;20035;-79
2021/08/13 06:35:36;;;;;;;11.30;7.88;;;21.30;87.20;;;;;;4991001;28;20029;-79
2021/08/13 06:38:09;;;;;;;11.35;8.45;;;21.40;89.20;;;;;;4990539;28;20042;-79
2021/08/13 06:40:35;;;;;;;13.82;9.18;;;21.60;89.40;;;;;;4987889;28;20122;-78
2021/08/13 06:43:00;;;;;;;16.20;9.85;;;21.90;90.30;;;;;;4972625;28;20093;-78
2021/08/13 06:45:35;;;;;;;19.10;11.48;;;22.10;90.30;;;;;;4967381;28;20031;-78
2021/08/13 06:48:00;;;;;;;14.65;9.82;;;22.20;90.40;;;;;;4988813;28;20036;-79
2021/08/13 06:50:32;;;;;;;15.43;9.07;;;22.30;90.30;;;;;;4624757;28;10000525;-78
2021/08/13 06:52:57;;;;;;;15.18;9.85;;;22.40;90.40;;;;;;4970535;28;20065;-79
2021/08/13 06:55:23;;;;;;;14.13;9.05;;;22.60;90.40;;;;;;5003099;28;20705;-79
2021/08/13 06:57:49;;;;;;;13.73;9.68;;;22.70;90.30;;;;;;4974342;28;20057;-78
2021/08/13 07:00:15;;;;;;;13.38;8.95;;;22.80;90.50;;;;;;4975476;28;20050;-79
2021/08/13 07:02:46;;;;;;;11.38;8.15;;;22.90;90.30;;;;;;4989319;28;20115;-78
2021/08/13 07:05:12;;;;;;;14.57;9.57;;;23.10;90.50;;;;;;5000083;28;20026;-79
2021/08/13 07:07:37;;;;;;;11.48;7.78;;;23.30;90.40;;;;;;4972533;28;20039;-79
2021/08/13 07:10:04;;;;;;;10.82;8.23;;;23.50;90.40;;;;;;4971748;28;20034;-80
2021/08/13 07:12:39;;;;;;;16.30;9.10;;;23.50;90.30;;;;;;4971697;28;20023;-80
2021/08/13 07:15:06;;;;;;;13.57;9.57;;;23.70;90.20;;;;;;4986837;28;20034;-78
2021/08/13 07:17:31;;;;;;;11.65;8.68;;;23.90;90.30;;;;;;4967852;28;20165;-79
2021/08/13 07:19:57;;;;;;;11.52;8.68;;;24.20;90.00;;;;;;4972434;28;20465;-79
2021/08/13 07:22:22;;;;;;;17.00;9.52;;;24.30;90.00;;;;;;4974243;28;20393;-81
2021/08/13 07:24:48;;;;;;;14.05;9.77;;;24.50;89.70;;;;;;4976071;28;20540;-79
2021/08/13 07:27:16;;;;;;;14.98;9.95;;;24.60;89.50;;;;;;4974491;28;20042;-80
2021/08/13 07:29:41;;;;;;;12.00;8.55;;;24.60;89.10;;;;;;4989537;28;20030;-78
2021/08/13 07:32:07;;;;;;;12.43;8.32;;;24.70;89.00;;;;;;4975725;28;20034;-78
2021/08/13 07:34:32;;;;;;;14.82;10.40;;;24.90;87.00;;;;;;4988383;28;20575;-78
2021/08/13 07:36:58;;;;;;;10.82;8.60;;;25.00;88.70;;;;;;4973853;28;20034;-78
2021/08/13 07:39:23;;;;;;;12.40;8.32;;;24.90;86.80;;;;;;4990304;28;20034;-79
2021/08/13 07:41:49;;;;;;;13.50;8.27;;;25.10;87.50;;;;;;4988752;28;20034;-78
2021/08/13 07:44:15;;;;;;;11.48;9.40;;;25.10;86.40;;;;;;4976309;28;20034;-78
2021/08/13 07:46:40;;;;;;;12.32;7.45;;;25.10;86.00;;;;;;4975507;28;20034;-78
2021/08/13 07:49:06;;;;;;;11.35;7.70;;;25.10;84.30;;;;;;4969060;28;20397;-79
2021/08/13 07:51:32;;;;;;;12.18;7.90;;;25.10;85.40;;;;;;4968107;28;20492;-79
2021/08/13 07:53:57;;;;;;;10.30;7.53;;;25.30;83.80;;;;;;4977208;28;20030;-80
2021/08/13 07:56:23;;;;;;;10.68;8.27;;;25.40;84.20;;;;;;4976879;28;20092;-80
2021/08/13 07:58:52;;;;;;;14.15;9.23;;;25.30;83.30;;;;;;4981565;28;20445;-78
2021/08/13 08:01:17;;;;;;;13.18;9.25;;;25.60;83.00;;;;;;4984391;28;20441;-79
2021/08/13 08:03:43;;;;;;;12.40;9.18;;;25.40;83.10;;;;;;4977738;28;20038;-79
2021/08/13 08:06:08;;;;;;;12.55;8.95;;;25.70;82.80;;;;;;4983189;28;20038;-79
2021/08/13 08:08:34;;;;;;;14.02;9.32;;;26.00;83.50;;;;;;4965929;28;20414;-80
2021/08/13 08:10:59;;;;;;;13.57;9.05;;;26.10;80.90;;;;;;4980125;28;20141;-82
2021/08/13 08:13:25;;;;;;;14.63;11.07;;;26.10;82.80;;;;;;4969335;28;20414;-81
2021/08/13 08:15:50;;;;;;;18.95;12.05;;;26.40;83.40;;;;;;4981711;28;20049;-81
2021/08/13 08:18:20;;;;;;;16.23;9.80;;;26.60;83.70;;;;;;4972202;28;20030;-80
2021/08/13 08:20:45;;;;;;;18.08;10.60;;;26.60;81.00;;;;;;4981278;28;20038;-81
2021/08/13 08:23:11;;;;;;;14.65;9.90;;;26.70;81.90;;;;;;4967000;28;20056;-81
2021/08/13 08:25:37;;;;;;;18.67;10.90;;;26.60;81.70;;;;;;4965381;28;20034;-81
2021/08/13 08:28:03;;;;;;;17.65;11.45;;;26.90;80.60;;;;;;4973584;28;20038;-81
2021/08/13 08:30:29;;;;;;;21.70;14.40;;;26.90;82.00;;;;;;4965078;28;20100;-80
2021/08/13 08:32:54;;;;;;;17.40;12.68;;;27.10;82.10;;;;;;4966420;28;20089;-82
2021/08/13 08:35:20;;;;;;;24.48;13.40;;;27.10;80.10;;;;;;4995061;28;20030;-81
2021/08/13 08:37:50;;;;;;;18.27;11.75;;;27.00;78.60;;;;;;4995176;28;20025;-82
2021/08/13 08:40:22;;;;;;;17.00;12.35;;;27.20;80.10;;;;;;4992030;28;20411;-81
2021/08/13 08:42:48;;;;;;;14.70;11.05;;;27.40;80.90;;;;;;4965148;28;20049;-81
2021/08/13 08:45:13;;;;;;;16.67;10.90;;;27.40;78.40;;;;;;4983158;28;20161;-80
2021/08/13 08:47:39;;;;;;;24.17;16.98;;;27.60;78.20;;;;;;4980804;28;20030;-81
2021/08/13 08:50:05;;;;;;;17.30;12.95;;;27.60;79.70;;;;;;4978855;28;20034;-82
2021/08/13 08:52:31;;;;;;;20.05;14.23;;;27.80;78.10;;;;;;4983607;28;20031;-81
2021/08/13 08:54:56;;;;;;;18.98;13.80;;;28.00;78.20;;;;;;4975937;28;20034;-81
2021/08/13 08:57:23;;;;;;;17.92;12.10;;;28.30;78.10;;;;;;4998228;28;20101;-81
2021/08/13 08:59:49;;;;;;;19.17;11.43;;;28.30;76.70;;;;;;4983279;28;20475;-80
2021/08/13 09:02:15;;;;;;;19.10;13.77;;;28.30;78.40;;;;;;4984924;28;20034;-80
2021/08/13 09:04:40;;;;;;;11.85;7.75;;;28.40;76.90;;;;;;4969470;28;20026;-79
2021/08/13 09:07:06;;;;;;;21.67;14.80;;;28.40;75.00;;;;;;4968910;28;20061;-80
2021/08/13 09:09:32;;;;;;;18.27;12.88;;;28.30;74.90;;;;;;4964168;28;20490;-81
2021/08/13 09:11:58;;;;;;;24.52;17.63;;;28.30;74.70;;;;;;4966874;28;20053;-80
2021/08/13 09:14:24;;;;;;;19.38;14.68;;;28.40;75.70;;;;;;4980084;28;20101;-82
2021/08/13 09:17:00;;;;;;;21.17;13.60;;;28.80;74.90;;;;;;4965660;28;20037;-82
2021/08/13 09:19:43;;;;;;;28.17;19.70;;;28.90;75.00;;;;;;4987625;28;20445;-80
2021/08/13 09:22:16;;;;;;;20.42;15.55;;;29.00;75.70;;;;;;4992827;28;20437;-80
2021/08/13 09:24:43;;;;;;;22.60;17.85;;;29.50;73.90;;;;;;4967852;28;20714;-80
2021/08/13 09:27:24;;;;;;;23.38;15.55;;;29.80;74.00;;;;;;4976461;28;20053;-79
2021/08/13 09:30:07;;;;;;;19.90;15.00;;;30.00;73.50;;;;;;4976890;28;20053;-81
2021/08/13 09:32:32;;;;;;;18.05;13.70;;;30.10;73.30;;;;;;4974687;28;20125;-80
2021/08/13 09:34:58;;;;;;;23.35;17.35;;;30.20;72.80;;;;;;4980927;28;20156;-79
2021/08/13 09:37:23;;;;;;;22.42;12.48;;;30.30;72.70;;;;;;4981688;28;20462;-80
2021/08/13 09:39:53;;;;;;;25.15;16.58;;;30.20;71.00;;;;;;4971257;28;20038;-80
2021/08/13 09:42:18;;;;;;;19.38;14.63;;;30.20;71.20;;;;;;4965377;28;20038;-80
2021/08/13 09:44:44;;;;;;;25.45;20.65;;;30.20;72.20;;;;;;4962744;28;20057;-80
2021/08/13 09:47:12;;;;;;;23.95;17.02;;;30.20;71.80;;;;;;4979942;28;20030;-79
2021/08/13 09:49:53;;;;;;;24.48;18.05;;;30.40;70.80;;;;;;4972395;28;20458;-80
2021/08/13 09:52:20;;;;;;;19.48;13.27;;;30.20;69.90;;;;;;4990250;28;20502;-79
2021/08/13 09:54:48;;;;;;;23.27;15.07;;;30.40;69.20;;;;;;4969869;28;20038;-80
2021/08/13 09:57:14;;;;;;;17.75;11.63;;;30.60;69.80;;;;;;4983273;28;20034;-79
2021/08/13 10:00:00;;;;;;;17.17;11.45;;;30.70;67.60;;;;;;4983424;28;20113;-80
2021/08/13 10:02:26;;;;;;;12.95;10.60;;;30.70;69.30;;;;;;4988984;28;20649;-80
2021/08/13 10:04:59;;;;;;;23.75;16.73;;;30.70;69.80;;;;;;4968890;28;20041;-80
2021/08/13 10:07:24;;;;;;;18.25;11.57;;;31.10;67.10;;;;;;4995960;28;20038;-80
2021/08/13 10:09:50;;;;;;;20.63;15.00;;;31.10;68.20;;;;;;4982717;28;20056;-80
2021/08/13 10:12:16;;;;;;;15.75;11.13;;;31.10;68.10;;;;;;4983018;28;20068;-80
2021/08/13 10:14:42;;;;;;;22.27;12.93;;;31.30;67.70;;;;;;4984011;28;20121;-81
2021/08/13 10:17:19;;;;;;;19.63;12.85;;;31.50;67.80;;;;;;4976154;28;20045;-80
2021/08/13 10:19:48;;;;;;;22.08;13.30;;;31.20;64.80;;;;;;4997993;28;20414;-80
2021/08/13 10:22:15;;;;;;;16.05;12.38;;;31.10;65.50;;;;;;4980376;28;20064;-80
2021/08/13 10:24:44;;;;;;;16.10;11.57;;;31.20;67.00;;;;;;4969456;28;20141;-80
2021/08/13 10:27:10;;;;;;;20.10;11.75;;;31.60;65.00;;;;;;4983799;28;20594;-80
2021/08/13 10:29:36;;;;;;;13.00;8.57;;;31.70;63.50;;;;;;4986370;28;20038;-81
2021/08/13 10:32:01;;;;;;;16.48;9.07;;;31.70;63.30;;;;;;4966887;28;20104;-81
2021/08/13 10:34:27;;;;;;;16.25;9.82;;;31.40;62.80;;;;;;4995141;28;20922;-80
2021/08/13 10:36:53;;;;;;;12.82;8.88;;;31.30;63.70;;;;;;4988608;28;20038;-81
2021/08/13 10:39:20;;;;;;;12.60;9.50;;;31.10;61.30;;;;;;4994482;28;20038;-81
2021/08/13 10:42:04;;;;;;;10.15;7.18;;;31.30;62.50;;;;;;4999412;28;20026;-80
2021/08/13 10:44:35;;;;;;;15.30;9.10;;;31.60;61.30;;;;;;4966319;28;20030;-80
2021/08/13 10:47:01;;;;;;;8.95;6.40;;;31.70;62.40;;;;;;4998030;28;20038;-81
2021/08/13 10:49:27;;;;;;;10.35;6.45;;;31.90;61.50;;;;;;4981195;28;20091;-80
2021/08/13 10:52:03;;;;;;;9.52;5.53;;;31.90;61.00;;;;;;4996622;28;20033;-80
2021/08/13 10:54:45;;;;;;;10.13;5.43;;;31.90;62.30;;;;;;4976746;28;20026;-80
2021/08/13 10:57:11;;;;;;;9.77;6.18;;;32.10;59.80;;;;;;4986041;28;20088;-80
2021/08/13 10:59:40;;;;;;;10.85;6.15;;;32.10;59.70;;;;;;4977671;28;20088;-80
2021/08/13 11:02:12;;;;;;;10.45;6.78;;;32.20;59.40;;;;;;4993525;28;20077;-80
2021/08/13 11:04:39;;;;;;;8.57;4.25;;;32.30;59.50;;;;;;4998381;28;20073;-80
2021/08/13 11:07:04;;;;;;;6.03;5.03;;;32.40;58.90;;;;;;4961819;28;20104;-81
2021/08/13 11:09:31;;;;;;;7.43;5.00;;;32.40;58.90;;;;;;4975261;28;20402;-80
2021/08/13 11:12:02;;;;;;;8.68;4.78;;;32.20;58.20;;;;;;4984673;28;20041;-80
2021/08/13 11:14:29;;;;;;;6.63;4.32;;;32.30;59.00;;;;;;4996785;28;20364;-80
2021/08/13 11:16:55;;;;;;;7.00;4.57;;;32.30;58.50;;;;;;4995014;28;20118;-80
2021/08/13 11:19:21;;;;;;;8.20;5.72;;;32.30;58.20;;;;;;4961428;28;20457;-80
2021/08/13 11:21:51;;;;;;;10.32;5.20;;;32.40;58.20;;;;;;4977332;28;20046;-80
2021/08/13 11:24:23;;;;;;;7.15;4.57;;;32.50;58.30;;;;;;4301864;28;10000206;-80
2021/08/13 11:26:53;;;;;;;6.68;4.32;;;32.50;57.40;;;;;;4977018;28;20042;-80
2021/08/13 11:29:28;;;;;;;5.53;4.00;;;32.60;58.20;;;;;;4993910;28;20084;-80
2021/08/13 11:31:54;;;;;;;9.30;5.00;;;32.70;58.30;;;;;;4989773;28;20042;-80
2021/08/13 11:35:03;;;;;;;7.03;4.45;;;32.80;58.20;;;;;;4976252;28;20026;-80
2021/08/13 11:37:35;;;;;;;9.32;4.05;;;33.00;58.40;;;;;;4988448;28;20076;-80
2021/08/13 11:40:07;;;;;;;9.65;5.75;;;33.10;57.00;;;;;;4992598;28;20663;-79
2021/08/13 11:42:34;;;;;;;7.00;4.13;;;33.20;56.60;;;;;;4989462;28;20529;-80
2021/08/13 11:45:00;;;;;;;9.95;4.13;;;33.40;57.40;;;;;;4989596;28;20604;-79
2021/08/13 11:47:26;;;;;;;5.22;3.30;;;33.50;57.20;;;;;;4986625;28;20069;-80
2021/08/13 11:49:51;;;;;;;4.22;3.15;;;33.80;56.60;;;;;;4992969;28;20422;-80
2021/08/13 11:52:18;;;;;;;5.10;3.50;;;33.80;56.60;;;;;;4962608;28;20408;-80
2021/08/13 11:54:44;;;;;;;5.82;3.47;;;33.80;55.80;;;;;;4961963;28;20041;-80
2021/08/13 11:57:17;;;;;;;5.47;3.75;;;33.80;56.40;;;;;;4975750;28;20030;-79
2021/08/13 11:59:43;;;;;;;6.47;3.45;;;33.70;56.80;;;;;;4993362;28;20548;-80
2021/08/13 12:02:09;;;;;;;5.35;3.42;;;33.60;56.40;;;;;;4980832;28;20163;-79
2021/08/13 12:04:35;;;;;;;4.30;3.10;;;33.70;56.90;;;;;;4991839;28;20535;-79
2021/08/13 12:07:05;;;;;;;4.45;3.13;;;33.90;55.80;;;;;;4978813;28;20100;-79
2021/08/13 12:09:31;;;;;;;5.30;3.30;;;34.00;55.50;;;;;;4991344;28;20315;-79
2021/08/13 12:11:56;;;;;;;5.22;3.10;;;34.10;55.30;;;;;;4994163;28;20239;-79
2021/08/13 12:14:22;;;;;;;3.40;2.58;;;34.20;55.00;;;;;;4989133;28;20489;-79
2021/08/13 12:16:54;;;;;;;6.05;3.13;;;34.20;55.30;;;;;;4982736;28;20029;-79
2021/08/13 12:19:23;;;;;;;3.35;2.40;;;34.30;55.20;;;;;;4990493;28;20427;-79
2021/08/13 12:21:55;;;;;;;4.53;3.15;;;34.20;54.80;;;;;;4993398;28;20522;-80
2021/08/13 12:24:40;;;;;;;5.68;2.72;;;34.40;54.40;;;;;;4972370;28;20042;-79
2021/08/13 12:27:10;;;;;;;3.53;3.17;;;34.50;53.80;;;;;;4990958;28;20057;-79
2021/08/13 12:29:37;;;;;;;2.63;2.40;;;34.30;52.90;;;;;;4977254;28;20034;-78
2021/08/13 12:32:04;;;;;;;3.78;2.28;;;34.60;53.00;;;;;;4962130;28;20034;-78
2021/08/13 12:34:31;;;;;;;3.33;2.45;;;34.50;51.50;;;;;;4991553;28;20038;-78
2021/08/13 12:37:14;;;;;;;5.75;3.10;;;34.70;51.80;;;;;;4962729;28;20045;-78